sensor_id;sensor_type;location;lat;lon;timestamp;P1;durP1;ratioP1;P2;durP2;ratioP2
37777;SDS011;23615;51.506;7.678;2023-08-21T00:01:49;0.60;;;0.30;;
37777;SDS011;23615;51.506;7.678;2023-08-21T00:04:14;0.93;;;0.30;;
37777;SDS011;23615;51.506;7.678;2023-08-21T00:06:40;0.53;;;0.30;;
37777;SDS011;23615;51.506;7.678;2023-08-21T00:09:05;1.40;;;0.50;;
37777;SDS011;23615;51.506;7.678;2023-08-21T00:11:30;0.40;;;0.30;;
37777;SDS011;23615;51.506;7.678;2023-08-21T00:13:56;1.10;;;0.40;;
37777;SDS011;23615;51.506;7.678;2023-08-21T00:16:21;1.17;;;0.40;;
37777;SDS011;23615;51.506;7.678;2023-08-21T00:18:46;0.63;;;0.30;;
37777;SDS011;23615;51.506;7.678;2023-08-21T00:21:12;1.03;;;0.20;;
37777;SDS011;23615;51.506;7.678;2023-08-21T00:23:37;0.85;;;0.47;;
37777;SDS011;23615;51.506;7.678;2023-08-21T00:26:03;0.60;;;0.30;;
37777;SDS011;23615;51.506;7.678;2023-08-21T00:28:29;0.77;;;0.40;;
37777;SDS011;23615;51.506;7.678;2023-08-21T00:31:01;2.35;;;0.50;;
37777;SDS011;23615;51.506;7.678;2023-08-21T00:33:27;0.30;;;0.30;;
37777;SDS011;23615;51.506;7.678;2023-08-21T00:35:52;2.72;;;0.32;;
37777;SDS011;23615;51.506;7.678;2023-08-21T00:38:18;1.10;;;0.50;;
37777;SDS011;23615;51.506;7.678;2023-08-21T00:40:43;1.00;;;0.50;;
37777;SDS011;23615;51.506;7.678;2023-08-21T00:43:08;0.63;;;0.43;;
37777;SDS011;23615;51.506;7.678;2023-08-21T00:45:34;0.73;;;0.50;;
37777;SDS011;23615;51.506;7.678;2023-08-21T00:47:59;1.27;;;0.60;;
37777;SDS011;23615;51.506;7.678;2023-08-21T00:50:24;0.60;;;0.60;;
37777;SDS011;23615;51.506;7.678;2023-08-21T00:52:50;0.40;;;0.40;;
37777;SDS011;23615;51.506;7.678;2023-08-21T00:55:16;2.00;;;0.60;;
37777;SDS011;23615;51.506;7.678;2023-08-21T00:57:42;0.47;;;0.35;;
37777;SDS011;23615;51.506;7.678;2023-08-21T01:00:08;1.10;;;0.40;;
37777;SDS011;23615;51.506;7.678;2023-08-21T01:02:37;2.50;;;0.98;;
37777;SDS011;23615;51.506;7.678;2023-08-21T01:05:03;2.80;;;0.80;;
37777;SDS011;23615;51.506;7.678;2023-08-21T01:07:30;1.60;;;0.60;;
37777;SDS011;23615;51.506;7.678;2023-08-21T01:10:05;0.50;;;0.40;;
37777;SDS011;23615;51.506;7.678;2023-08-21T01:12:37;1.40;;;0.40;;
37777;SDS011;23615;51.506;7.678;2023-08-21T01:15:13;1.20;;;0.60;;
37777;SDS011;23615;51.506;7.678;2023-08-21T01:17:39;1.20;;;0.40;;
37777;SDS011;23615;51.506;7.678;2023-08-21T01:20:06;1.02;;;0.60;;
37777;SDS011;23615;51.506;7.678;2023-08-21T01:22:39;0.60;;;0.55;;
37777;SDS011;23615;51.506;7.678;2023-08-21T01:25:05;0.90;;;0.40;;
37777;SDS011;23615;51.506;7.678;2023-08-21T01:27:31;1.90;;;0.52;;
37777;SDS011;23615;51.506;7.678;2023-08-21T01:29:58;0.68;;;0.50;;
37777;SDS011;23615;51.506;7.678;2023-08-21T01:32:27;1.13;;;0.45;;
37777;SDS011;23615;51.506;7.678;2023-08-21T01:34:59;0.95;;;0.65;;
37777;SDS011;23615;51.506;7.678;2023-08-21T01:37:26;0.75;;;0.75;;
37777;SDS011;23615;51.506;7.678;2023-08-21T01:39:53;1.60;;;0.50;;
37777;SDS011;23615;51.506;7.678;2023-08-21T01:42:18;1.20;;;0.40;;
37777;SDS011;23615;51.506;7.678;2023-08-21T01:44:44;0.50;;;0.50;;
37777;SDS011;23615;51.506;7.678;2023-08-21T01:47:11;0.30;;;0.30;;
37777;SDS011;23615;51.506;7.678;2023-08-21T01:49:36;1.00;;;0.40;;
37777;SDS011;23615;51.506;7.678;2023-08-21T01:52:02;1.00;;;0.40;;
37777;SDS011;23615;51.506;7.678;2023-08-21T01:54:27;1.23;;;0.60;;
37777;SDS011;23615;51.506;7.678;2023-08-21T01:56:53;0.50;;;0.50;;
37777;SDS011;23615;51.506;7.678;2023-08-21T01:59:19;0.60;;;0.50;;
37777;SDS011;23615;51.506;7.678;2023-08-21T02:01:45;1.08;;;0.65;;
37777;SDS011;23615;51.506;7.678;2023-08-21T02:04:10;0.77;;;0.47;;
37777;SDS011;23615;51.506;7.678;2023-08-21T02:06:35;0.40;;;0.30;;
37777;SDS011;23615;51.506;7.678;2023-08-21T02:09:02;0.40;;;0.30;;
37777;SDS011;23615;51.506;7.678;2023-08-21T02:11:28;0.37;;;0.33;;
37777;SDS011;23615;51.506;7.678;2023-08-21T02:13:53;0.93;;;0.50;;
37777;SDS011;23615;51.506;7.678;2023-08-21T02:16:18;1.30;;;0.40;;
37777;SDS011;23615;51.506;7.678;2023-08-21T02:18:45;1.00;;;0.50;;
37777;SDS011;23615;51.506;7.678;2023-08-21T02:21:10;1.20;;;0.57;;
37777;SDS011;23615;51.506;7.678;2023-08-21T02:23:35;1.67;;;0.60;;
37777;SDS011;23615;51.506;7.678;2023-08-21T02:26:01;0.97;;;0.37;;
37777;SDS011;23615;51.506;7.678;2023-08-21T02:28:26;0.40;;;0.30;;
37777;SDS011;23615;51.506;7.678;2023-08-21T02:30:51;1.00;;;0.50;;
37777;SDS011;23615;51.506;7.678;2023-08-21T02:33:17;1.30;;;0.40;;
37777;SDS011;23615;51.506;7.678;2023-08-21T02:35:42;1.53;;;0.60;;
37777;SDS011;23615;51.506;7.678;2023-08-21T02:38:07;0.73;;;0.60;;
37777;SDS011;23615;51.506;7.678;2023-08-21T02:40:33;1.70;;;0.50;;
37777;SDS011;23615;51.506;7.678;2023-08-21T02:42:58;1.13;;;0.40;;
37777;SDS011;23615;51.506;7.678;2023-08-21T02:45:23;2.93;;;0.73;;
37777;SDS011;23615;51.506;7.678;2023-08-21T02:47:49;0.90;;;0.70;;
37777;SDS011;23615;51.506;7.678;2023-08-21T02:50:14;0.70;;;0.40;;
37777;SDS011;23615;51.506;7.678;2023-08-21T02:52:39;0.77;;;0.70;;
37777;SDS011;23615;51.506;7.678;2023-08-21T02:55:05;0.87;;;0.70;;
37777;SDS011;23615;51.506;7.678;2023-08-21T02:57:31;0.80;;;0.68;;
37777;SDS011;23615;51.506;7.678;2023-08-21T02:59:56;0.90;;;0.70;;
37777;SDS011;23615;51.506;7.678;2023-08-21T03:02:22;3.40;;;1.20;;
37777;SDS011;23615;51.506;7.678;2023-08-21T03:04:48;1.83;;;1.02;;
37777;SDS011;23615;51.506;7.678;2023-08-21T03:07:14;1.77;;;1.33;;
37777;SDS011;23615;51.506;7.678;2023-08-21T03:09:39;3.60;;;1.13;;
37777;SDS011;23615;51.506;7.678;2023-08-21T03:12:06;1.00;;;1.00;;
37777;SDS011;23615;51.506;7.678;2023-08-21T03:14:33;2.05;;;1.20;;
37777;SDS011;23615;51.506;7.678;2023-08-21T03:16:59;1.63;;;0.90;;
37777;SDS011;23615;51.506;7.678;2023-08-21T03:19:24;1.57;;;1.10;;
37777;SDS011;23615;51.506;7.678;2023-08-21T03:21:50;1.10;;;1.10;;
37777;SDS011;23615;51.506;7.678;2023-08-21T03:24:16;1.53;;;0.93;;
37777;SDS011;23615;51.506;7.678;2023-08-21T03:26:41;2.03;;;1.30;;
37777;SDS011;23615;51.506;7.678;2023-08-21T03:29:07;1.73;;;0.90;;
37777;SDS011;23615;51.506;7.678;2023-08-21T03:31:32;2.30;;;1.00;;
37777;SDS011;23615;51.506;7.678;2023-08-21T03:33:57;1.10;;;0.97;;
37777;SDS011;23615;51.506;7.678;2023-08-21T03:36:23;1.23;;;1.13;;
37777;SDS011;23615;51.506;7.678;2023-08-21T03:38:56;1.40;;;1.05;;
37777;SDS011;23615;51.506;7.678;2023-08-21T03:41:25;1.30;;;1.00;;
37777;SDS011;23615;51.506;7.678;2023-08-21T03:43:50;1.60;;;1.13;;
37777;SDS011;23615;51.506;7.678;2023-08-21T03:46:16;1.67;;;1.20;;
37777;SDS011;23615;51.506;7.678;2023-08-21T03:48:41;1.57;;;1.00;;
37777;SDS011;23615;51.506;7.678;2023-08-21T03:51:07;0.90;;;0.90;;
37777;SDS011;23615;51.506;7.678;2023-08-21T03:53:32;1.70;;;1.45;;
37777;SDS011;23615;51.506;7.678;2023-08-21T03:55:58;2.05;;;1.63;;
37777;SDS011;23615;51.506;7.678;2023-08-21T03:58:23;1.63;;;1.20;;
37777;SDS011;23615;51.506;7.678;2023-08-21T04:00:50;1.17;;;1.08;;
37777;SDS011;23615;51.506;7.678;2023-08-21T04:03:16;2.80;;;1.45;;
37777;SDS011;23615;51.506;7.678;2023-08-21T04:05:41;2.35;;;1.52;;
37777;SDS011;23615;51.506;7.678;2023-08-21T04:08:06;1.33;;;1.23;;
37777;SDS011;23615;51.506;7.678;2023-08-21T04:10:32;1.83;;;1.27;;
37777;SDS011;23615;51.506;7.678;2023-08-21T04:12:58;1.65;;;1.10;;
37777;SDS011;23615;51.506;7.678;2023-08-21T04:15:23;1.17;;;0.83;;
37777;SDS011;23615;51.506;7.678;2023-08-21T04:17:48;1.33;;;1.23;;
37777;SDS011;23615;51.506;7.678;2023-08-21T04:20:13;1.70;;;1.07;;
37777;SDS011;23615;51.506;7.678;2023-08-21T04:22:39;1.30;;;1.20;;
37777;SDS011;23615;51.506;7.678;2023-08-21T04:25:04;2.15;;;1.88;;
37777;SDS011;23615;51.506;7.678;2023-08-21T04:27:31;1.60;;;1.50;;
37777;SDS011;23615;51.506;7.678;2023-08-21T04:29:58;1.88;;;1.60;;
37777;SDS011;23615;51.506;7.678;2023-08-21T04:32:24;2.47;;;1.60;;
37777;SDS011;23615;51.506;7.678;2023-08-21T04:34:49;1.87;;;1.40;;
37777;SDS011;23615;51.506;7.678;2023-08-21T04:37:15;3.70;;;1.87;;
37777;SDS011;23615;51.506;7.678;2023-08-21T04:39:40;1.40;;;1.20;;
37777;SDS011;23615;51.506;7.678;2023-08-21T04:42:05;2.08;;;1.77;;
37777;SDS011;23615;51.506;7.678;2023-08-21T04:44:31;1.57;;;1.47;;
37777;SDS011;23615;51.506;7.678;2023-08-21T04:46:56;1.77;;;1.40;;
37777;SDS011;23615;51.506;7.678;2023-08-21T04:49:21;1.65;;;1.50;;
37777;SDS011;23615;51.506;7.678;2023-08-21T04:51:47;1.13;;;1.07;;
37777;SDS011;23615;51.506;7.678;2023-08-21T04:54:12;2.57;;;1.10;;
37777;SDS011;23615;51.506;7.678;2023-08-21T04:56:37;1.83;;;1.60;;
37777;SDS011;23615;51.506;7.678;2023-08-21T04:59:03;1.77;;;1.30;;
37777;SDS011;23615;51.506;7.678;2023-08-21T05:01:28;1.43;;;1.20;;
37777;SDS011;23615;51.506;7.678;2023-08-21T05:03:53;1.37;;;1.20;;
37777;SDS011;23615;51.506;7.678;2023-08-21T05:06:20;2.50;;;1.08;;
37777;SDS011;23615;51.506;7.678;2023-08-21T05:08:45;2.10;;;1.13;;
37777;SDS011;23615;51.506;7.678;2023-08-21T05:11:10;1.70;;;1.03;;
37777;SDS011;23615;51.506;7.678;2023-08-21T05:13:36;2.50;;;1.00;;
37777;SDS011;23615;51.506;7.678;2023-08-21T05:16:01;2.22;;;1.00;;
37777;SDS011;23615;51.506;7.678;2023-08-21T05:18:26;0.90;;;0.90;;
37777;SDS011;23615;51.506;7.678;2023-08-21T05:20:53;1.37;;;1.03;;
37777;SDS011;23615;51.506;7.678;2023-08-21T05:23:20;2.45;;;1.23;;
37777;SDS011;23615;51.506;7.678;2023-08-21T05:25:46;1.73;;;1.10;;
37777;SDS011;23615;51.506;7.678;2023-08-21T05:28:13;1.52;;;1.17;;
37777;SDS011;23615;51.506;7.678;2023-08-21T05:30:38;1.63;;;1.23;;
37777;SDS011;23615;51.506;7.678;2023-08-21T05:33:03;2.10;;;1.50;;
37777;SDS011;23615;51.506;7.678;2023-08-21T05:35:32;1.97;;;1.23;;
37777;SDS011;23615;51.506;7.678;2023-08-21T05:37:58;2.40;;;1.13;;
37777;SDS011;23615;51.506;7.678;2023-08-21T05:40:24;1.50;;;0.90;;
37777;SDS011;23615;51.506;7.678;2023-08-21T05:42:49;2.30;;;0.97;;
37777;SDS011;23615;51.506;7.678;2023-08-21T05:45:14;1.87;;;1.17;;
37777;SDS011;23615;51.506;7.678;2023-08-21T05:47:40;2.65;;;1.50;;
37777;SDS011;23615;51.506;7.678;2023-08-21T05:50:05;1.90;;;1.40;;
37777;SDS011;23615;51.506;7.678;2023-08-21T05:52:36;1.77;;;1.10;;
37777;SDS011;23615;51.506;7.678;2023-08-21T05:55:01;1.87;;;1.37;;
37777;SDS011;23615;51.506;7.678;2023-08-21T05:57:26;3.17;;;1.67;;
37777;SDS011;23615;51.506;7.678;2023-08-21T05:59:52;1.63;;;1.37;;
37777;SDS011;23615;51.506;7.678;2023-08-21T06:02:17;2.23;;;1.80;;
37777;SDS011;23615;51.506;7.678;2023-08-21T06:04:42;2.17;;;1.73;;
37777;SDS011;23615;51.506;7.678;2023-08-21T06:07:09;2.88;;;2.13;;
37777;SDS011;23615;51.506;7.678;2023-08-21T06:09:34;4.63;;;2.97;;
37777;SDS011;23615;51.506;7.678;2023-08-21T06:12:01;3.53;;;2.40;;
37777;SDS011;23615;51.506;7.678;2023-08-21T06:14:30;4.40;;;3.10;;
37777;SDS011;23615;51.506;7.678;2023-08-21T06:16:56;2.80;;;2.40;;
37777;SDS011;23615;51.506;7.678;2023-08-21T06:19:25;2.40;;;1.95;;
37777;SDS011;23615;51.506;7.678;2023-08-21T06:21:51;2.33;;;2.10;;
37777;SDS011;23615;51.506;7.678;2023-08-21T06:24:16;3.17;;;2.37;;
37777;SDS011;23615;51.506;7.678;2023-08-21T06:26:41;2.60;;;1.83;;
37777;SDS011;23615;51.506;7.678;2023-08-21T06:29:07;4.60;;;2.03;;
37777;SDS011;23615;51.506;7.678;2023-08-21T06:31:32;1.98;;;1.30;;
37777;SDS011;23615;51.506;7.678;2023-08-21T06:33:58;1.65;;;1.55;;
37777;SDS011;23615;51.506;7.678;2023-08-21T06:36:23;1.90;;;1.30;;
37777;SDS011;23615;51.506;7.678;2023-08-21T06:38:48;3.00;;;1.60;;
37777;SDS011;23615;51.506;7.678;2023-08-21T06:41:14;1.40;;;1.30;;
37777;SDS011;23615;51.506;7.678;2023-08-21T06:43:39;3.73;;;2.13;;
37777;SDS011;23615;51.506;7.678;2023-08-21T06:46:04;2.30;;;1.53;;
37777;SDS011;23615;51.506;7.678;2023-08-21T06:48:30;4.77;;;2.30;;
37777;SDS011;23615;51.506;7.678;2023-08-21T06:50:56;4.18;;;1.90;;
37777;SDS011;23615;51.506;7.678;2023-08-21T06:53:21;6.18;;;2.60;;
37777;SDS011;23615;51.506;7.678;2023-08-21T06:55:47;2.37;;;1.70;;
37777;SDS011;23615;51.506;7.678;2023-08-21T06:58:12;2.10;;;1.60;;
37777;SDS011;23615;51.506;7.678;2023-08-21T07:00:50;3.30;;;1.80;;
37777;SDS011;23615;51.506;7.678;2023-08-21T07:03:15;1.90;;;1.30;;
37777;SDS011;23615;51.506;7.678;2023-08-21T07:05:40;2.80;;;1.53;;
37777;SDS011;23615;51.506;7.678;2023-08-21T07:08:06;4.10;;;1.77;;
37777;SDS011;23615;51.506;7.678;2023-08-21T07:10:35;1.60;;;1.20;;
37777;SDS011;23615;51.506;7.678;2023-08-21T07:13:02;4.40;;;1.93;;
37777;SDS011;23615;51.506;7.678;2023-08-21T07:15:28;2.25;;;1.75;;
37777;SDS011;23615;51.506;7.678;2023-08-21T07:17:54;3.50;;;1.53;;
37777;SDS011;23615;51.506;7.678;2023-08-21T07:20:20;1.98;;;1.15;;
37777;SDS011;23615;51.506;7.678;2023-08-21T07:22:46;1.75;;;1.17;;
37777;SDS011;23615;51.506;7.678;2023-08-21T07:25:11;1.70;;;1.50;;
37777;SDS011;23615;51.506;7.678;2023-08-21T07:27:37;2.10;;;1.42;;
37777;SDS011;23615;51.506;7.678;2023-08-21T07:30:03;3.70;;;1.88;;
37777;SDS011;23615;51.506;7.678;2023-08-21T07:32:28;3.70;;;2.67;;
37777;SDS011;23615;51.506;7.678;2023-08-21T07:34:54;3.23;;;2.43;;
37777;SDS011;23615;51.506;7.678;2023-08-21T07:37:19;4.57;;;2.40;;
37777;SDS011;23615;51.506;7.678;2023-08-21T07:39:45;2.67;;;1.67;;
37777;SDS011;23615;51.506;7.678;2023-08-21T07:42:11;3.30;;;1.25;;
37777;SDS011;23615;51.506;7.678;2023-08-21T07:44:38;2.30;;;1.35;;
37777;SDS011;23615;51.506;7.678;2023-08-21T07:47:04;5.60;;;2.85;;
37777;SDS011;23615;51.506;7.678;2023-08-21T07:49:30;4.13;;;2.03;;
37777;SDS011;23615;51.506;7.678;2023-08-21T07:51:56;2.80;;;2.03;;
37777;SDS011;23615;51.506;7.678;2023-08-21T07:54:21;5.60;;;2.20;;
37777;SDS011;23615;51.506;7.678;2023-08-21T07:56:47;3.55;;;2.58;;
37777;SDS011;23615;51.506;7.678;2023-08-21T07:59:12;4.57;;;2.78;;
37777;SDS011;23615;51.506;7.678;2023-08-21T08:01:38;4.17;;;2.23;;
37777;SDS011;23615;51.506;7.678;2023-08-21T08:04:03;2.33;;;1.80;;
37777;SDS011;23615;51.506;7.678;2023-08-21T08:06:29;3.87;;;2.33;;
37777;SDS011;23615;51.506;7.678;2023-08-21T08:08:55;6.50;;;2.80;;
37777;SDS011;23615;51.506;7.678;2023-08-21T08:11:20;4.27;;;2.30;;
37777;SDS011;23615;51.506;7.678;2023-08-21T08:13:46;2.60;;;1.90;;
37777;SDS011;23615;51.506;7.678;2023-08-21T08:16:11;2.43;;;1.83;;
37777;SDS011;23615;51.506;7.678;2023-08-21T08:18:36;1.97;;;1.07;;
37777;SDS011;23615;51.506;7.678;2023-08-21T08:21:01;3.07;;;1.60;;
37777;SDS011;23615;51.506;7.678;2023-08-21T08:23:27;3.53;;;1.90;;
37777;SDS011;23615;51.506;7.678;2023-08-21T08:25:52;2.78;;;1.33;;
37777;SDS011;23615;51.506;7.678;2023-08-21T08:28:18;1.00;;;0.70;;
37777;SDS011;23615;51.506;7.678;2023-08-21T08:30:43;2.80;;;1.30;;
37777;SDS011;23615;51.506;7.678;2023-08-21T08:33:08;3.67;;;1.75;;
37777;SDS011;23615;51.506;7.678;2023-08-21T08:35:34;2.73;;;1.37;;
37777;SDS011;23615;51.506;7.678;2023-08-21T08:37:59;4.73;;;1.23;;
37777;SDS011;23615;51.506;7.678;2023-08-21T08:40:24;4.10;;;1.77;;
37777;SDS011;23615;51.506;7.678;2023-08-21T08:42:50;3.57;;;1.67;;
37777;SDS011;23615;51.506;7.678;2023-08-21T08:45:16;3.65;;;2.03;;
37777;SDS011;23615;51.506;7.678;2023-08-21T08:47:53;3.25;;;1.30;;
37777;SDS011;23615;51.506;7.678;2023-08-21T08:50:19;3.57;;;1.67;;
37777;SDS011;23615;51.506;7.678;2023-08-21T08:52:45;3.30;;;1.38;;
37777;SDS011;23615;51.506;7.678;2023-08-21T08:55:10;3.08;;;1.45;;
37777;SDS011;23615;51.506;7.678;2023-08-21T08:57:36;4.63;;;2.30;;
37777;SDS011;23615;51.506;7.678;2023-08-21T09:00:04;2.93;;;0.80;;
37777;SDS011;23615;51.506;7.678;2023-08-21T09:02:38;1.58;;;0.63;;
37777;SDS011;23615;51.506;7.678;2023-08-21T09:05:15;2.53;;;0.88;;
37777;SDS011;23615;51.506;7.678;2023-08-21T09:07:41;4.72;;;1.30;;
37777;SDS011;23615;51.506;7.678;2023-08-21T09:13:36;1.37;;;0.50;;
37777;SDS011;23615;51.506;7.678;2023-08-21T09:16:02;3.00;;;0.70;;
37777;SDS011;23615;51.506;7.678;2023-08-21T09:18:28;1.00;;;0.45;;
37777;SDS011;23615;51.506;7.678;2023-08-21T09:20:53;2.53;;;0.80;;
37777;SDS011;23615;51.506;7.678;2023-08-21T09:23:20;1.27;;;0.47;;
37777;SDS011;23615;51.506;7.678;2023-08-21T09:25:46;1.23;;;0.67;;
37777;SDS011;23615;51.506;7.678;2023-08-21T09:28:13;1.05;;;0.80;;
37777;SDS011;23615;51.506;7.678;2023-08-21T09:30:46;2.40;;;0.80;;
37777;SDS011;23615;51.506;7.678;2023-08-21T09:33:16;0.95;;;0.52;;
37777;SDS011;23615;51.506;7.678;2023-08-21T09:35:43;2.70;;;0.88;;
37777;SDS011;23615;51.506;7.678;2023-08-21T09:38:08;1.90;;;0.80;;
37777;SDS011;23615;51.506;7.678;2023-08-21T09:40:34;3.13;;;1.07;;
37777;SDS011;23615;51.506;7.678;2023-08-21T09:43:04;3.75;;;1.00;;
37777;SDS011;23615;51.506;7.678;2023-08-21T09:45:30;1.90;;;1.00;;
37777;SDS011;23615;51.506;7.678;2023-08-21T09:47:55;4.23;;;1.33;;
37777;SDS011;23615;51.506;7.678;2023-08-21T09:50:23;3.17;;;1.00;;
37777;SDS011;23615;51.506;7.678;2023-08-21T09:52:49;3.00;;;0.90;;
37777;SDS011;23615;51.506;7.678;2023-08-21T09:55:16;1.55;;;0.60;;
37777;SDS011;23615;51.506;7.678;2023-08-21T09:57:43;2.33;;;1.00;;
37777;SDS011;23615;51.506;7.678;2023-08-21T10:00:09;1.45;;;0.60;;
37777;SDS011;23615;51.506;7.678;2023-08-21T10:02:46;4.68;;;1.10;;
37777;SDS011;23615;51.506;7.678;2023-08-21T10:05:15;3.75;;;1.35;;
37777;SDS011;23615;51.506;7.678;2023-08-21T10:07:42;2.00;;;0.82;;
37777;SDS011;23615;51.506;7.678;2023-08-21T10:10:11;3.72;;;0.85;;
37777;SDS011;23615;51.506;7.678;2023-08-21T10:12:37;3.42;;;1.27;;
37777;SDS011;23615;51.506;7.678;2023-08-21T10:15:06;3.10;;;1.13;;
37777;SDS011;23615;51.506;7.678;2023-08-21T10:17:34;3.25;;;1.20;;
37777;SDS011;23615;51.506;7.678;2023-08-21T10:20:04;3.45;;;1.20;;
37777;SDS011;23615;51.506;7.678;2023-08-21T10:22:44;2.10;;;0.90;;
37777;SDS011;23615;51.506;7.678;2023-08-21T10:25:17;2.38;;;0.70;;
37777;SDS011;23615;51.506;7.678;2023-08-21T10:30:21;3.63;;;1.20;;
37777;SDS011;23615;51.506;7.678;2023-08-21T10:32:49;1.83;;;1.03;;
37777;SDS011;23615;51.506;7.678;2023-08-21T10:35:28;1.95;;;1.00;;
37777;SDS011;23615;51.506;7.678;2023-08-21T10:38:05;2.97;;;1.45;;
37777;SDS011;23615;51.506;7.678;2023-08-21T10:41:05;2.07;;;0.83;;
37777;SDS011;23615;51.506;7.678;2023-08-21T10:43:42;2.70;;;1.05;;
37777;SDS011;23615;51.506;7.678;2023-08-21T10:46:09;2.60;;;1.20;;
37777;SDS011;23615;51.506;7.678;2023-08-21T10:48:35;2.17;;;1.00;;
37777;SDS011;23615;51.506;7.678;2023-08-21T10:51:01;2.20;;;0.90;;
37777;SDS011;23615;51.506;7.678;2023-08-21T10:53:28;1.58;;;0.70;;
37777;SDS011;23615;51.506;7.678;2023-08-21T10:55:54;2.20;;;0.85;;
37777;SDS011;23615;51.506;7.678;2023-08-21T10:58:20;3.28;;;1.30;;
37777;SDS011;23615;51.506;7.678;2023-08-21T11:00:46;1.92;;;0.80;;
37777;SDS011;23615;51.506;7.678;2023-08-21T11:03:12;4.07;;;1.27;;
37777;SDS011;23615;51.506;7.678;2023-08-21T11:05:39;1.98;;;1.05;;
37777;SDS011;23615;51.506;7.678;2023-08-21T11:08:05;1.93;;;1.07;;
37777;SDS011;23615;51.506;7.678;2023-08-21T11:10:31;1.90;;;0.88;;
37777;SDS011;23615;51.506;7.678;2023-08-21T11:12:57;1.80;;;0.80;;
37777;SDS011;23615;51.506;7.678;2023-08-21T11:15:28;5.85;;;1.05;;
37777;SDS011;23615;51.506;7.678;2023-08-21T11:17:58;1.58;;;0.80;;
37777;SDS011;23615;51.506;7.678;2023-08-21T11:20:31;1.92;;;0.63;;
37777;SDS011;23615;51.506;7.678;2023-08-21T11:22:58;1.65;;;0.70;;
37777;SDS011;23615;51.506;7.678;2023-08-21T11:25:25;3.20;;;0.70;;
37777;SDS011;23615;51.506;7.678;2023-08-21T11:27:52;1.90;;;0.70;;
37777;SDS011;23615;51.506;7.678;2023-08-21T11:30:17;1.43;;;0.50;;
37777;SDS011;23615;51.506;7.678;2023-08-21T11:32:43;1.17;;;0.80;;
37777;SDS011;23615;51.506;7.678;2023-08-21T11:35:08;4.80;;;1.10;;
37777;SDS011;23615;51.506;7.678;2023-08-21T11:37:34;3.10;;;0.80;;
37777;SDS011;23615;51.506;7.678;2023-08-21T11:40:08;3.50;;;1.20;;
37777;SDS011;23615;51.506;7.678;2023-08-21T11:42:34;6.47;;;1.63;;
37777;SDS011;23615;51.506;7.678;2023-08-21T11:45:00;2.47;;;1.07;;
37777;SDS011;23615;51.506;7.678;2023-08-21T11:47:33;1.80;;;1.00;;
37777;SDS011;23615;51.506;7.678;2023-08-21T11:50:03;0.90;;;0.60;;
37777;SDS011;23615;51.506;7.678;2023-08-21T11:52:29;3.25;;;1.08;;
37777;SDS011;23615;51.506;7.678;2023-08-21T11:54:56;3.50;;;1.50;;
37777;SDS011;23615;51.506;7.678;2023-08-21T11:57:22;2.72;;;1.00;;
37777;SDS011;23615;51.506;7.678;2023-08-21T11:59:52;1.85;;;0.95;;
37777;SDS011;23615;51.506;7.678;2023-08-21T12:02:24;2.15;;;0.80;;
37777;SDS011;23615;51.506;7.678;2023-08-21T12:05:03;1.80;;;1.00;;
37777;SDS011;23615;51.506;7.678;2023-08-21T12:07:30;2.10;;;0.80;;
37777;SDS011;23615;51.506;7.678;2023-08-21T12:09:56;1.00;;;0.57;;
37777;SDS011;23615;51.506;7.678;2023-08-21T12:12:22;1.37;;;0.60;;
37777;SDS011;23615;51.506;7.678;2023-08-21T12:14:48;2.83;;;1.00;;
37777;SDS011;23615;51.506;7.678;2023-08-21T12:17:13;3.37;;;0.90;;
37777;SDS011;23615;51.506;7.678;2023-08-21T12:19:39;1.70;;;0.70;;
37777;SDS011;23615;51.506;7.678;2023-08-21T12:22:04;1.73;;;0.70;;
37777;SDS011;23615;51.506;7.678;2023-08-21T12:24:30;5.03;;;1.80;;
37777;SDS011;23615;51.506;7.678;2023-08-21T12:26:55;2.73;;;1.40;;
37777;SDS011;23615;51.506;7.678;2023-08-21T12:29:21;2.03;;;1.27;;
37777;SDS011;23615;51.506;7.678;2023-08-21T12:31:46;2.13;;;1.70;;
37777;SDS011;23615;51.506;7.678;2023-08-21T12:34:12;2.20;;;1.45;;
37777;SDS011;23615;51.506;7.678;2023-08-21T12:36:38;2.87;;;1.40;;
37777;SDS011;23615;51.506;7.678;2023-08-21T12:39:03;3.20;;;0.80;;
37777;SDS011;23615;51.506;7.678;2023-08-21T12:41:30;0.83;;;0.50;;
37777;SDS011;23615;51.506;7.678;2023-08-21T12:43:55;2.57;;;0.77;;
37777;SDS011;23615;51.506;7.678;2023-08-21T12:46:21;2.58;;;0.75;;
37777;SDS011;23615;51.506;7.678;2023-08-21T12:48:46;1.03;;;0.50;;
37777;SDS011;23615;51.506;7.678;2023-08-21T12:51:12;2.30;;;0.60;;
37777;SDS011;23615;51.506;7.678;2023-08-21T12:53:37;3.63;;;0.73;;
37777;SDS011;23615;51.506;7.678;2023-08-21T12:56:02;2.37;;;0.80;;
37777;SDS011;23615;51.506;7.678;2023-08-21T12:58:28;1.60;;;0.83;;
37777;SDS011;23615;51.506;7.678;2023-08-21T13:00:54;2.63;;;0.65;;
37777;SDS011;23615;51.506;7.678;2023-08-21T13:03:19;6.03;;;1.00;;
37777;SDS011;23615;51.506;7.678;2023-08-21T13:05:45;2.10;;;0.70;;
37777;SDS011;23615;51.506;7.678;2023-08-21T13:08:10;2.28;;;0.60;;
37777;SDS011;23615;51.506;7.678;2023-08-21T13:10:36;3.63;;;1.07;;
37777;SDS011;23615;51.506;7.678;2023-08-21T13:13:01;4.73;;;1.07;;
37777;SDS011;23615;51.506;7.678;2023-08-21T13:15:27;3.10;;;0.70;;
37777;SDS011;23615;51.506;7.678;2023-08-21T13:17:53;3.45;;;1.10;;
37777;SDS011;23615;51.506;7.678;2023-08-21T13:20:19;3.90;;;1.17;;
37777;SDS011;23615;51.506;7.678;2023-08-21T13:22:48;4.87;;;1.30;;
37777;SDS011;23615;51.506;7.678;2023-08-21T13:25:15;5.30;;;0.70;;
37777;SDS011;23615;51.506;7.678;2023-08-21T13:27:41;5.77;;;1.00;;
37777;SDS011;23615;51.506;7.678;2023-08-21T13:30:07;2.42;;;0.50;;
37777;SDS011;23615;51.506;7.678;2023-08-21T13:32:33;2.53;;;0.80;;
37777;SDS011;23615;51.506;7.678;2023-08-21T13:34:58;3.70;;;0.70;;
37777;SDS011;23615;51.506;7.678;2023-08-21T13:37:24;2.80;;;0.70;;
37777;SDS011;23615;51.506;7.678;2023-08-21T13:39:49;1.60;;;0.70;;
37777;SDS011;23615;51.506;7.678;2023-08-21T13:42:14;4.23;;;1.10;;
37777;SDS011;23615;51.506;7.678;2023-08-21T13:44:40;3.00;;;1.07;;
37777;SDS011;23615;51.506;7.678;2023-08-21T13:47:05;3.33;;;1.27;;
37777;SDS011;23615;51.506;7.678;2023-08-21T13:49:30;2.75;;;1.05;;
37777;SDS011;23615;51.506;7.678;2023-08-21T13:51:56;1.30;;;0.77;;
37777;SDS011;23615;51.506;7.678;2023-08-21T13:54:21;6.70;;;1.65;;
37777;SDS011;23615;51.506;7.678;2023-08-21T13:56:46;2.60;;;1.10;;
37777;SDS011;23615;51.506;7.678;2023-08-21T13:59:12;2.67;;;1.10;;
37777;SDS011;23615;51.506;7.678;2023-08-21T14:01:37;2.53;;;1.20;;
37777;SDS011;23615;51.506;7.678;2023-08-21T14:04:03;2.10;;;1.03;;
37777;SDS011;23615;51.506;7.678;2023-08-21T14:06:28;3.50;;;1.43;;
37777;SDS011;23615;51.506;7.678;2023-08-21T14:08:54;3.40;;;1.40;;
37777;SDS011;23615;51.506;7.678;2023-08-21T14:11:19;1.83;;;0.80;;
37777;SDS011;23615;51.506;7.678;2023-08-21T14:13:45;4.53;;;1.10;;
37777;SDS011;23615;51.506;7.678;2023-08-21T14:16:10;1.77;;;0.82;;
37777;SDS011;23615;51.506;7.678;2023-08-21T14:18:36;1.90;;;0.65;;
37777;SDS011;23615;51.506;7.678;2023-08-21T14:21:01;2.67;;;1.20;;
37777;SDS011;23615;51.506;7.678;2023-08-21T14:23:27;2.65;;;0.90;;
37777;SDS011;23615;51.506;7.678;2023-08-21T14:25:52;1.37;;;0.77;;
37777;SDS011;23615;51.506;7.678;2023-08-21T14:28:18;8.10;;;1.17;;
37777;SDS011;23615;51.506;7.678;2023-08-21T14:30:43;1.37;;;0.90;;
37777;SDS011;23615;51.506;7.678;2023-08-21T14:33:10;7.53;;;1.95;;
37777;SDS011;23615;51.506;7.678;2023-08-21T14:35:36;1.70;;;0.90;;
37777;SDS011;23615;51.506;7.678;2023-08-21T14:38:02;2.20;;;1.10;;
37777;SDS011;23615;51.506;7.678;2023-08-21T14:40:27;2.25;;;0.77;;
37777;SDS011;23615;51.506;7.678;2023-08-21T14:42:53;3.20;;;1.00;;
37777;SDS011;23615;51.506;7.678;2023-08-21T14:45:18;5.50;;;1.88;;
37777;SDS011;23615;51.506;7.678;2023-08-21T14:47:43;1.80;;;1.23;;
37777;SDS011;23615;51.506;7.678;2023-08-21T14:50:09;3.55;;;1.42;;